createdAt,value
2022-11-02T00:04:45.199Z,12.03
2022-11-02T00:09:46.664Z,11.96
2022-11-02T00:14:48.156Z,11.96
2022-11-02T00:19:49.662Z,12.00
2022-11-02T00:24:51.499Z,11.98
2022-11-02T00:29:53.944Z,11.96
2022-11-02T00:34:55.407Z,11.94
2022-11-02T00:39:56.942Z,11.93
2022-11-02T00:44:58.478Z,11.56
2022-11-02T00:50:00.003Z,11.13
2022-11-02T00:55:01.482Z,10.61
2022-11-02T01:00:04.005Z,10.35
2022-11-02T01:05:08.162Z,10.35
2022-11-02T01:10:10.989Z,10.36
2022-11-02T01:15:12.473Z,10.45
2022-11-02T01:20:14.392Z,10.55
2022-11-02T01:25:16.420Z,10.67
2022-11-02T01:30:17.972Z,10.74
2022-11-02T01:35:19.452Z,10.81
2022-11-02T01:40:20.948Z,10.86
2022-11-02T01:45:22.611Z,10.86
2022-11-02T01:50:27.425Z,10.80
2022-11-02T01:55:32.917Z,10.76
2022-11-02T02:00:34.404Z,10.72
2022-11-02T02:05:40.815Z,10.67
2022-11-02T02:10:42.269Z,10.65
2022-11-02T02:16:00.684Z,10.68
2022-11-02T02:21:14.530Z,10.69
2022-11-02T02:26:55.326Z,10.66
2022-11-02T02:32:10.003Z,10.67
2022-11-02T02:37:19.444Z,10.63
2022-11-02T02:42:31.316Z,10.62
2022-11-02T02:47:35.516Z,10.63
2022-11-02T02:52:37.826Z,10.64
2022-11-02T02:57:39.791Z,10.61
2022-11-02T03:02:43.929Z,10.63
2022-11-02T03:07:45.482Z,10.59
2022-11-02T03:13:23.512Z,10.37
2022-11-02T03:18:43.679Z,10.22
2022-11-02T03:23:58.397Z,10.19
2022-11-02T03:28:59.825Z,10.20
2022-11-02T03:34:09.399Z,10.15
2022-11-02T03:39:13.672Z,10.13
2022-11-02T03:44:20.261Z,10.14
2022-11-02T03:49:23.804Z,10.11
2022-11-02T03:54:51.713Z,10.12
2022-11-02T03:59:53.207Z,10.15
2022-11-02T04:04:54.744Z,10.16
2022-11-02T04:09:56.185Z,10.14
2022-11-02T04:14:57.642Z,10.15
2022-11-02T04:19:59.152Z,10.16
2022-11-02T04:25:15.751Z,10.21
2022-11-02T04:30:22.324Z,10.31
2022-11-02T04:35:23.773Z,10.38
2022-11-02T04:40:25.444Z,10.39
2022-11-02T04:45:26.918Z,10.37
2022-11-02T04:50:28.890Z,10.36
2022-11-02T04:55:31.195Z,10.42
2022-11-02T05:00:32.674Z,10.46
2022-11-02T05:05:34.148Z,10.46
2022-11-02T05:10:35.777Z,10.47
2022-11-02T05:15:39.767Z,10.47
2022-11-02T05:20:41.374Z,10.48
2022-11-02T05:25:42.813Z,10.48
2022-11-02T05:30:44.323Z,10.52
2022-11-02T05:35:46.446Z,10.57
2022-11-02T05:40:55.762Z,10.62
2022-11-02T05:46:02.161Z,10.64
2022-11-02T05:51:04.349Z,10.64
2022-11-02T05:56:07.696Z,10.67
2022-11-02T06:01:10.784Z,10.69
2022-11-02T06:06:12.461Z,10.73
2022-11-02T06:11:14.358Z,10.71
2022-11-02T06:16:22.397Z,10.72
2022-11-02T06:21:24.670Z,10.68
2022-11-02T06:26:26.153Z,10.53
2022-11-02T06:31:27.618Z,10.49
2022-11-02T06:36:29.080Z,10.44
2022-11-02T06:41:30.544Z,10.44
2022-11-02T06:46:32.278Z,10.47
2022-11-02T06:51:33.725Z,10.53
2022-11-02T06:56:35.180Z,10.61
2022-11-02T07:01:36.822Z,10.67
2022-11-02T07:06:38.355Z,10.69
2022-11-02T07:11:39.825Z,10.75
2022-11-02T07:16:41.293Z,10.75
2022-11-02T07:21:45.107Z,10.79
2022-11-02T07:26:50.222Z,10.81
2022-11-02T07:31:51.751Z,10.82
2022-11-02T07:36:55.044Z,10.87
2022-11-02T07:41:56.566Z,10.86
2022-11-02T07:46:58.088Z,10.90
2022-11-02T07:51:59.585Z,10.90
2022-11-02T07:57:01.125Z,10.92
2022-11-02T08:02:03.133Z,11.03
2022-11-02T08:07:05.122Z,11.18
2022-11-02T08:12:06.642Z,11.26
2022-11-02T08:17:08.418Z,11.35
2022-11-02T08:22:10.781Z,11.33
2022-11-02T08:27:12.260Z,11.45
2022-11-02T08:32:13.731Z,11.55
2022-11-02T08:37:15.198Z,11.62
2022-11-02T08:42:17.379Z,11.76
2022-11-02T08:47:18.903Z,11.85
2022-11-02T08:52:20.376Z,11.94
2022-11-02T08:57:21.825Z,12.05
2022-11-02T09:02:23.423Z,12.16
2022-11-02T09:07:24.882Z,12.25
2022-11-02T09:12:26.347Z,12.32
2022-11-02T09:17:29.235Z,12.44
2022-11-02T09:22:30.742Z,12.52
2022-11-02T09:27:32.220Z,12.57
2022-11-02T09:32:34.413Z,12.70
2022-11-02T09:37:36.531Z,12.80
2022-11-02T09:42:46.578Z,12.90
2022-11-02T09:48:17.995Z,12.99
2022-11-02T09:53:31.671Z,13.07
2022-11-02T09:58:40.897Z,13.22
2022-11-02T10:04:33.270Z,13.28
2022-11-02T10:09:49.960Z,13.34
2022-11-02T10:15:22.917Z,13.45
2022-11-02T10:20:39.325Z,13.58
2022-11-02T10:25:41.953Z,13.66
2022-11-02T10:30:44.500Z,13.73
2022-11-02T10:36:30.591Z,13.68
2022-11-02T10:41:37.859Z,13.68
2022-11-02T10:46:57.918Z,13.71
2022-11-02T10:51:59.703Z,13.76
2022-11-02T10:57:11.222Z,13.95
2022-11-02T11:02:15.171Z,14.10
2022-11-02T11:07:22.221Z,14.08
2022-11-02T11:12:30.549Z,14.17
2022-11-02T11:23:25.374Z,14.08
2022-11-02T11:28:37.916Z,14.11
2022-11-02T11:33:49.105Z,14.03
2022-11-02T11:38:52.532Z,13.98
2022-11-02T11:43:54.543Z,13.98
2022-11-02T11:48:59.653Z,14.01
2022-11-02T11:54:14.947Z,14.00
2022-11-02T11:59:22.307Z,13.98
2022-11-02T12:04:37.471Z,13.95
2022-11-02T12:10:09.713Z,13.79
2022-11-02T12:15:38.596Z,13.67
2022-11-02T12:21:15.734Z,13.61
2022-11-02T12:26:42.062Z,13.56
2022-11-02T12:31:54.485Z,13.70
2022-11-02T12:37:40.047Z,13.82
2022-11-02T12:43:21.661Z,13.87
2022-11-02T12:48:49.561Z,13.86
2022-11-02T12:54:13.941Z,13.86
2022-11-02T12:59:26.956Z,13.81
2022-11-02T13:04:39.640Z,13.71
2022-11-02T13:09:51.944Z,13.71
2022-11-02T13:14:56.739Z,13.78
2022-11-02T13:20:01.875Z,13.81
2022-11-02T13:25:15.637Z,13.83
2022-11-02T13:30:19.023Z,13.84
2022-11-02T13:35:27.793Z,13.86
2022-11-02T13:40:47.481Z,13.85
2022-11-02T13:45:57.324Z,13.78
2022-11-02T13:51:06.212Z,13.81
2022-11-02T13:56:21.290Z,13.75
2022-11-02T14:01:23.521Z,13.65
2022-11-02T14:06:25.941Z,13.55
2022-11-02T14:11:42.512Z,13.48
2022-11-02T14:16:58.641Z,13.45
2022-11-02T14:22:00.355Z,13.40
2022-11-02T14:27:13.646Z,13.26
2022-11-02T14:32:21.010Z,13.17
2022-11-02T14:37:41.112Z,13.01
2022-11-02T14:42:52.650Z,12.97
2022-11-02T14:48:04.248Z,12.95
2022-11-02T14:53:16.714Z,12.96
2022-11-02T14:58:20.371Z,12.97
2022-11-02T15:03:24.660Z,12.94
2022-11-02T15:08:31.421Z,12.46
2022-11-02T15:13:36.095Z,12.25
2022-11-02T15:18:38.908Z,12.06
2022-11-02T15:24:12.343Z,12.03
2022-11-02T15:29:26.935Z,11.94
2022-11-02T15:34:43.525Z,12.00
2022-11-02T15:39:52.847Z,12.02
2022-11-02T15:45:48.794Z,12.05
2022-11-02T15:50:53.198Z,12.08
2022-11-02T15:56:28.512Z,12.05
2022-11-02T16:01:30.143Z,12.04
2022-11-02T16:06:41.590Z,11.94
2022-11-02T16:11:43.050Z,11.90
2022-11-02T16:16:49.656Z,11.86
2022-11-02T16:21:51.169Z,11.73
2022-11-02T16:26:52.804Z,11.69
2022-11-02T16:31:54.315Z,11.74
2022-11-02T16:36:56.828Z,11.75
2022-11-02T16:42:00.486Z,11.70
2022-11-02T16:47:08.137Z,11.70
2022-11-02T16:52:20.469Z,11.66
2022-11-02T16:57:25.201Z,11.66
2022-11-02T17:02:39.610Z,11.56
2022-11-02T17:07:46.795Z,11.63
2022-11-02T17:12:49.237Z,11.51
2022-11-02T17:17:50.998Z,11.43
2022-11-02T17:22:58.717Z,11.46
2022-11-02T17:28:03.223Z,11.38
2022-11-02T17:33:29.578Z,11.33
2022-11-02T17:43:57.825Z,11.28
2022-11-02T17:48:59.316Z,11.35
2022-11-02T17:54:00.791Z,11.47
2022-11-02T17:59:02.282Z,11.41
2022-11-02T18:04:03.808Z,11.36
2022-11-02T18:09:11.216Z,11.32
2022-11-02T18:14:16.773Z,11.33
2022-11-02T18:19:19.310Z,11.41
2022-11-02T18:24:20.803Z,11.43
2022-11-02T18:29:22.305Z,11.43
2022-11-02T18:34:25.894Z,11.44
2022-11-02T18:39:28.953Z,11.43
2022-11-02T18:44:30.420Z,11.41
2022-11-02T18:49:31.907Z,11.50
2022-11-02T18:54:33.504Z,11.53
2022-11-02T18:59:36.084Z,11.52
2022-11-02T19:04:37.777Z,11.58
2022-11-02T19:09:39.300Z,11.46
2022-11-02T19:14:44.505Z,11.22
2022-11-02T19:19:46.700Z,11.20
2022-11-02T19:24:51.423Z,11.20
2022-11-02T19:29:53.026Z,11.19
2022-11-02T19:34:54.499Z,11.27
2022-11-02T19:39:56.001Z,11.12
2022-11-02T19:44:57.483Z,11.16
2022-11-02T19:49:58.947Z,11.16
2022-11-02T19:55:00.470Z,11.27
2022-11-02T20:00:01.965Z,11.46
2022-11-02T20:05:03.545Z,11.53
2022-11-02T20:10:05.244Z,11.56
2022-11-02T20:15:07.932Z,11.59
2022-11-02T20:20:09.618Z,11.64
2022-11-02T20:25:11.093Z,11.65
2022-11-02T20:30:12.638Z,11.68
2022-11-02T20:35:14.181Z,11.66
2022-11-02T20:40:15.972Z,11.69
2022-11-02T20:45:17.919Z,11.69
2022-11-02T20:50:24.739Z,11.66
2022-11-02T20:55:27.488Z,11.68
2022-11-02T21:00:28.985Z,11.68
2022-11-02T21:05:30.786Z,11.69
2022-11-02T21:10:32.251Z,11.69
2022-11-02T21:15:38.513Z,11.68
2022-11-02T21:20:42.635Z,11.65
2022-11-02T21:25:46.366Z,11.67
2022-11-02T21:30:49.653Z,11.67
2022-11-02T21:35:53.783Z,11.65
2022-11-02T21:41:01.311Z,11.67
2022-11-02T21:46:05.628Z,11.67
2022-11-02T21:51:15.904Z,11.66
2022-11-02T21:56:26.864Z,11.61
2022-11-02T22:01:49.389Z,11.64
2022-11-02T22:06:52.337Z,11.65
2022-11-02T22:12:12.893Z,11.63
2022-11-02T22:17:43.229Z,11.63
2022-11-02T22:22:35.842Z,11.64
2022-11-02T22:27:37.301Z,11.62
2022-11-02T22:32:38.748Z,11.64
2022-11-02T22:37:58.765Z,11.61
2022-11-02T22:43:00.255Z,11.69
2022-11-02T22:48:01.900Z,11.68
2022-11-02T22:53:09.272Z,11.69
2022-11-02T22:58:12.780Z,11.69
2022-11-02T23:03:19.109Z,11.68
2022-11-02T23:08:20.893Z,11.67
2022-11-02T23:13:22.748Z,11.65
2022-11-02T23:18:44.179Z,11.63
2022-11-02T23:24:04.291Z,11.58
2022-11-02T23:29:24.300Z,11.54
2022-11-02T23:34:25.761Z,11.57
2022-11-02T23:39:45.771Z,11.58
2022-11-02T23:44:47.245Z,11.56
2022-11-02T23:49:48.711Z,11.52
2022-11-02T23:55:08.492Z,11.51
